sensor_id;sensor_type;location;lat;lon;timestamp;P1;durP1;ratioP1;P2;durP2;ratioP2
17949;SDS011;9100;48.700;9.316;2023-06-19T00:00:26;7.1;;;6.3;;
17949;SDS011;9100;48.700;9.316;2023-06-19T00:01:06;7.7;;;6.9;;
17949;SDS011;9100;48.700;9.316;2023-06-19T00:01:26;7.7;;;6.9;;
17949;SDS011;9100;48.700;9.316;2023-06-19T00:02:26;7.7;;;6.9;;
17949;SDS011;9100;48.700;9.316;2023-06-19T00:03:26;7.7;;;6.9;;
17949;SDS011;9100;48.700;9.316;2023-06-19T00:04:26;7.7;;;6.9;;
17949;SDS011;9100;48.700;9.316;2023-06-19T00:05:26;7.7;;;6.9;;
17949;SDS011;9100;48.700;9.316;2023-06-19T00:06:06;7.2;;;6.5;;
17949;SDS011;9100;48.700;9.316;2023-06-19T00:06:26;7.2;;;6.5;;
17949;SDS011;9100;48.700;9.316;2023-06-19T00:07:26;7.2;;;6.5;;
17949;SDS011;9100;48.700;9.316;2023-06-19T00:08:26;7.2;;;6.5;;
17949;SDS011;9100;48.700;9.316;2023-06-19T00:09:26;7.2;;;6.5;;
17949;SDS011;9100;48.700;9.316;2023-06-19T00:10:26;7.2;;;6.5;;
17949;SDS011;9100;48.700;9.316;2023-06-19T00:11:06;6.5;;;5.8;;
17949;SDS011;9100;48.700;9.316;2023-06-19T00:11:26;6.5;;;5.8;;
17949;SDS011;9100;48.700;9.316;2023-06-19T00:12:26;6.5;;;5.8;;
17949;SDS011;9100;48.700;9.316;2023-06-19T00:13:26;6.5;;;5.8;;
17949;SDS011;9100;48.700;9.316;2023-06-19T00:14:26;6.5;;;5.8;;
17949;SDS011;9100;48.700;9.316;2023-06-19T00:15:26;6.5;;;5.8;;
17949;SDS011;9100;48.700;9.316;2023-06-19T00:16:06;23.2;;;6.2;;
17949;SDS011;9100;48.700;9.316;2023-06-19T00:16:26;23.2;;;6.2;;
17949;SDS011;9100;48.700;9.316;2023-06-19T00:17:26;23.2;;;6.2;;
17949;SDS011;9100;48.700;9.316;2023-06-19T00:18:26;23.2;;;6.2;;
17949;SDS011;9100;48.700;9.316;2023-06-19T00:19:26;23.2;;;6.2;;
17949;SDS011;9100;48.700;9.316;2023-06-19T00:20:26;23.2;;;6.2;;
17949;SDS011;9100;48.700;9.316;2023-06-19T00:21:06;12.1;;;6.3;;
17949;SDS011;9100;48.700;9.316;2023-06-19T00:21:26;12.1;;;6.3;;
17949;SDS011;9100;48.700;9.316;2023-06-19T00:22:26;12.1;;;6.3;;
17949;SDS011;9100;48.700;9.316;2023-06-19T00:23:26;12.1;;;6.3;;
17949;SDS011;9100;48.700;9.316;2023-06-19T00:24:26;12.1;;;6.3;;
17949;SDS011;9100;48.700;9.316;2023-06-19T00:25:26;12.1;;;6.3;;
17949;SDS011;9100;48.700;9.316;2023-06-19T00:26:06;10.9;;;6.6;;
17949;SDS011;9100;48.700;9.316;2023-06-19T00:26:26;10.9;;;6.6;;
17949;SDS011;9100;48.700;9.316;2023-06-19T00:27:26;10.9;;;6.6;;
17949;SDS011;9100;48.700;9.316;2023-06-19T00:28:26;10.9;;;6.6;;
17949;SDS011;9100;48.700;9.316;2023-06-19T00:29:26;10.9;;;6.6;;
17949;SDS011;9100;48.700;9.316;2023-06-19T00:30:26;10.9;;;6.6;;
17949;SDS011;9100;48.700;9.316;2023-06-19T00:31:06;8;;;5.9;;
17949;SDS011;9100;48.700;9.316;2023-06-19T00:31:26;8;;;5.9;;
17949;SDS011;9100;48.700;9.316;2023-06-19T00:32:26;8;;;5.9;;
17949;SDS011;9100;48.700;9.316;2023-06-19T00:33:26;8;;;5.9;;
17949;SDS011;9100;48.700;9.316;2023-06-19T00:34:28;8;;;5.9;;
17949;SDS011;9100;48.700;9.316;2023-06-19T00:35:26;8;;;5.9;;
17949;SDS011;9100;48.700;9.316;2023-06-19T00:36:08;7;;;6.3;;
17949;SDS011;9100;48.700;9.316;2023-06-19T00:36:26;7;;;6.3;;
17949;SDS011;9100;48.700;9.316;2023-06-19T00:37:26;7;;;6.3;;
17949;SDS011;9100;48.700;9.316;2023-06-19T00:38:26;7;;;6.3;;
17949;SDS011;9100;48.700;9.316;2023-06-19T00:39:26;7;;;6.3;;
17949;SDS011;9100;48.700;9.316;2023-06-19T00:40:26;7;;;6.3;;
17949;SDS011;9100;48.700;9.316;2023-06-19T00:41:06;7.4;;;6.8;;
17949;SDS011;9100;48.700;9.316;2023-06-19T00:41:26;7.4;;;6.8;;
17949;SDS011;9100;48.700;9.316;2023-06-19T00:42:26;7.4;;;6.8;;
17949;SDS011;9100;48.700;9.316;2023-06-19T00:43:26;7.4;;;6.8;;
17949;SDS011;9100;48.700;9.316;2023-06-19T00:44:26;7.4;;;6.8;;
17949;SDS011;9100;48.700;9.316;2023-06-19T00:45:26;7.4;;;6.8;;
17949;SDS011;9100;48.700;9.316;2023-06-19T00:46:06;7.1;;;6.4;;
17949;SDS011;9100;48.700;9.316;2023-06-19T00:46:26;7.1;;;6.4;;
17949;SDS011;9100;48.700;9.316;2023-06-19T00:47:26;7.1;;;6.4;;
17949;SDS011;9100;48.700;9.316;2023-06-19T00:48:26;7.1;;;6.4;;
17949;SDS011;9100;48.700;9.316;2023-06-19T00:49:26;7.1;;;6.4;;
17949;SDS011;9100;48.700;9.316;2023-06-19T00:50:27;7.1;;;6.4;;
17949;SDS011;9100;48.700;9.316;2023-06-19T00:51:06;7.9;;;6;;
17949;SDS011;9100;48.700;9.316;2023-06-19T00:51:26;7.9;;;6;;
17949;SDS011;9100;48.700;9.316;2023-06-19T00:52:26;7.9;;;6;;
17949;SDS011;9100;48.700;9.316;2023-06-19T00:53:26;7.9;;;6;;
17949;SDS011;9100;48.700;9.316;2023-06-19T00:54:26;7.9;;;6;;
17949;SDS011;9100;48.700;9.316;2023-06-19T00:55:27;7.9;;;6;;
17949;SDS011;9100;48.700;9.316;2023-06-19T00:56:06;6.7;;;6.1;;
17949;SDS011;9100;48.700;9.316;2023-06-19T00:56:26;6.7;;;6.1;;
17949;SDS011;9100;48.700;9.316;2023-06-19T00:57:26;6.7;;;6.1;;
17949;SDS011;9100;48.700;9.316;2023-06-19T00:58:26;6.7;;;6.1;;
17949;SDS011;9100;48.700;9.316;2023-06-19T00:59:26;6.7;;;6.1;;
17949;SDS011;9100;48.700;9.316;2023-06-19T01:00:26;6.7;;;6.1;;
17949;SDS011;9100;48.700;9.316;2023-06-19T01:01:06;6.6;;;6;;
17949;SDS011;9100;48.700;9.316;2023-06-19T01:01:26;6.6;;;6;;
17949;SDS011;9100;48.700;9.316;2023-06-19T01:02:26;6.6;;;6;;
17949;SDS011;9100;48.700;9.316;2023-06-19T01:03:26;6.6;;;6;;
17949;SDS011;9100;48.700;9.316;2023-06-19T01:04:26;6.6;;;6;;
17949;SDS011;9100;48.700;9.316;2023-06-19T01:05:26;6.6;;;6;;
17949;SDS011;9100;48.700;9.316;2023-06-19T01:06:08;9.9;;;6.5;;
17949;SDS011;9100;48.700;9.316;2023-06-19T01:06:27;9.9;;;6.5;;
17949;SDS011;9100;48.700;9.316;2023-06-19T01:07:27;9.9;;;6.5;;
17949;SDS011;9100;48.700;9.316;2023-06-19T01:08:33;9.9;;;6.5;;
17949;SDS011;9100;48.700;9.316;2023-06-19T01:09:28;9.9;;;6.5;;
17949;SDS011;9100;48.700;9.316;2023-06-19T01:10:27;9.9;;;6.5;;
17949;SDS011;9100;48.700;9.316;2023-06-19T01:11:06;7.4;;;6.2;;
17949;SDS011;9100;48.700;9.316;2023-06-19T01:11:28;7.4;;;6.2;;
17949;SDS011;9100;48.700;9.316;2023-06-19T01:12:27;7.4;;;6.2;;
17949;SDS011;9100;48.700;9.316;2023-06-19T01:13:27;7.4;;;6.2;;
17949;SDS011;9100;48.700;9.316;2023-06-19T01:14:26;7.4;;;6.2;;
17949;SDS011;9100;48.700;9.316;2023-06-19T01:15:26;7.4;;;6.2;;
17949;SDS011;9100;48.700;9.316;2023-06-19T01:16:06;6.8;;;6.2;;
17949;SDS011;9100;48.700;9.316;2023-06-19T01:16:26;6.8;;;6.2;;
17949;SDS011;9100;48.700;9.316;2023-06-19T01:17:26;6.8;;;6.2;;
17949;SDS011;9100;48.700;9.316;2023-06-19T01:18:26;6.8;;;6.2;;
17949;SDS011;9100;48.700;9.316;2023-06-19T01:19:26;6.8;;;6.2;;
17949;SDS011;9100;48.700;9.316;2023-06-19T01:20:26;6.8;;;6.2;;
17949;SDS011;9100;48.700;9.316;2023-06-19T01:21:09;9;;;6.3;;
17949;SDS011;9100;48.700;9.316;2023-06-19T01:21:26;9;;;6.3;;
17949;SDS011;9100;48.700;9.316;2023-06-19T01:22:26;9;;;6.3;;
17949;SDS011;9100;48.700;9.316;2023-06-19T01:23:26;9;;;6.3;;
17949;SDS011;9100;48.700;9.316;2023-06-19T01:24:26;9;;;6.3;;
17949;SDS011;9100;48.700;9.316;2023-06-19T01:25:26;9;;;6.3;;
17949;SDS011;9100;48.700;9.316;2023-06-19T01:26:06;10.9;;;7.1;;
17949;SDS011;9100;48.700;9.316;2023-06-19T01:26:26;10.9;;;7.1;;
17949;SDS011;9100;48.700;9.316;2023-06-19T01:27:26;10.9;;;7.1;;
17949;SDS011;9100;48.700;9.316;2023-06-19T01:28:26;10.9;;;7.1;;
17949;SDS011;9100;48.700;9.316;2023-06-19T01:29:26;10.9;;;7.1;;
17949;SDS011;9100;48.700;9.316;2023-06-19T01:30:26;10.9;;;7.1;;
17949;SDS011;9100;48.700;9.316;2023-06-19T01:31:08;9.5;;;7.1;;
17949;SDS011;9100;48.700;9.316;2023-06-19T01:31:27;9.5;;;7.1;;
17949;SDS011;9100;48.700;9.316;2023-06-19T01:32:29;9.5;;;7.1;;
17949;SDS011;9100;48.700;9.316;2023-06-19T01:33:27;9.5;;;7.1;;
17949;SDS011;9100;48.700;9.316;2023-06-19T01:34:26;9.5;;;7.1;;
17949;SDS011;9100;48.700;9.316;2023-06-19T01:35:27;9.5;;;7.1;;
17949;SDS011;9100;48.700;9.316;2023-06-19T01:36:06;7.7;;;6.4;;
17949;SDS011;9100;48.700;9.316;2023-06-19T01:36:26;7.7;;;6.4;;
17949;SDS011;9100;48.700;9.316;2023-06-19T01:37:26;7.7;;;6.4;;
17949;SDS011;9100;48.700;9.316;2023-06-19T01:38:26;7.7;;;6.4;;
17949;SDS011;9100;48.700;9.316;2023-06-19T01:39:26;7.7;;;6.4;;
17949;SDS011;9100;48.700;9.316;2023-06-19T01:40:26;7.7;;;6.4;;
17949;SDS011;9100;48.700;9.316;2023-06-19T01:41:06;8;;;7.3;;
17949;SDS011;9100;48.700;9.316;2023-06-19T01:41:26;8;;;7.3;;
17949;SDS011;9100;48.700;9.316;2023-06-19T01:42:26;8;;;7.3;;
17949;SDS011;9100;48.700;9.316;2023-06-19T01:43:26;8;;;7.3;;
17949;SDS011;9100;48.700;9.316;2023-06-19T01:44:26;8;;;7.3;;
17949;SDS011;9100;48.700;9.316;2023-06-19T01:45:26;8;;;7.3;;
17949;SDS011;9100;48.700;9.316;2023-06-19T01:46:07;8.1;;;6.8;;
17949;SDS011;9100;48.700;9.316;2023-06-19T01:46:26;8.1;;;6.8;;
17949;SDS011;9100;48.700;9.316;2023-06-19T01:47:26;8.1;;;6.8;;
17949;SDS011;9100;48.700;9.316;2023-06-19T01:48:26;8.1;;;6.8;;
17949;SDS011;9100;48.700;9.316;2023-06-19T01:49:26;8.1;;;6.8;;
17949;SDS011;9100;48.700;9.316;2023-06-19T01:50:26;8.1;;;6.8;;
17949;SDS011;9100;48.700;9.316;2023-06-19T01:51:06;6.8;;;6.1;;
17949;SDS011;9100;48.700;9.316;2023-06-19T01:51:26;6.8;;;6.1;;
17949;SDS011;9100;48.700;9.316;2023-06-19T01:52:26;6.8;;;6.1;;
17949;SDS011;9100;48.700;9.316;2023-06-19T01:53:26;6.8;;;6.1;;
17949;SDS011;9100;48.700;9.316;2023-06-19T01:54:26;6.8;;;6.1;;
17949;SDS011;9100;48.700;9.316;2023-06-19T01:55:26;6.8;;;6.1;;
17949;SDS011;9100;48.700;9.316;2023-06-19T01:56:06;6.5;;;5.8;;
17949;SDS011;9100;48.700;9.316;2023-06-19T01:56:26;6.5;;;5.8;;
17949;SDS011;9100;48.700;9.316;2023-06-19T01:57:26;6.5;;;5.8;;
17949;SDS011;9100;48.700;9.316;2023-06-19T01:58:26;6.5;;;5.8;;
17949;SDS011;9100;48.700;9.316;2023-06-19T01:59:26;6.5;;;5.8;;
17949;SDS011;9100;48.700;9.316;2023-06-19T02:00:26;6.5;;;5.8;;
17949;SDS011;9100;48.700;9.316;2023-06-19T02:01:06;7;;;6.3;;
17949;SDS011;9100;48.700;9.316;2023-06-19T02:01:26;7;;;6.3;;
17949;SDS011;9100;48.700;9.316;2023-06-19T02:02:26;7;;;6.3;;
17949;SDS011;9100;48.700;9.316;2023-06-19T02:03:26;7;;;6.3;;
17949;SDS011;9100;48.700;9.316;2023-06-19T02:04:26;7;;;6.3;;
17949;SDS011;9100;48.700;9.316;2023-06-19T02:05:26;7;;;6.3;;
17949;SDS011;9100;48.700;9.316;2023-06-19T02:06:06;7.2;;;6;;
17949;SDS011;9100;48.700;9.316;2023-06-19T02:06:26;7.2;;;6;;
17949;SDS011;9100;48.700;9.316;2023-06-19T02:07:26;7.2;;;6;;
17949;SDS011;9100;48.700;9.316;2023-06-19T02:08:26;7.2;;;6;;
17949;SDS011;9100;48.700;9.316;2023-06-19T02:09:26;7.2;;;6;;
17949;SDS011;9100;48.700;9.316;2023-06-19T02:10:26;7.2;;;6;;
17949;SDS011;9100;48.700;9.316;2023-06-19T02:11:06;7.1;;;6;;
17949;SDS011;9100;48.700;9.316;2023-06-19T02:11:26;7.1;;;6;;
17949;SDS011;9100;48.700;9.316;2023-06-19T02:12:26;7.1;;;6;;
17949;SDS011;9100;48.700;9.316;2023-06-19T02:13:26;7.1;;;6;;
17949;SDS011;9100;48.700;9.316;2023-06-19T02:14:26;7.1;;;6;;
17949;SDS011;9100;48.700;9.316;2023-06-19T02:15:26;7.1;;;6;;
17949;SDS011;9100;48.700;9.316;2023-06-19T02:16:06;6.2;;;4.9;;
17949;SDS011;9100;48.700;9.316;2023-06-19T02:16:26;6.2;;;4.9;;
17949;SDS011;9100;48.700;9.316;2023-06-19T02:17:26;6.2;;;4.9;;
17949;SDS011;9100;48.700;9.316;2023-06-19T02:18:26;6.2;;;4.9;;
17949;SDS011;9100;48.700;9.316;2023-06-19T02:19:26;6.2;;;4.9;;
17949;SDS011;9100;48.700;9.316;2023-06-19T02:20:26;6.2;;;4.9;;
17949;SDS011;9100;48.700;9.316;2023-06-19T02:21:06;6;;;5.5;;
17949;SDS011;9100;48.700;9.316;2023-06-19T02:21:26;6;;;5.5;;
17949;SDS011;9100;48.700;9.316;2023-06-19T02:22:26;6;;;5.5;;
17949;SDS011;9100;48.700;9.316;2023-06-19T02:23:26;6;;;5.5;;
17949;SDS011;9100;48.700;9.316;2023-06-19T02:24:26;6;;;5.5;;
17949;SDS011;9100;48.700;9.316;2023-06-19T02:25:26;6;;;5.5;;
17949;SDS011;9100;48.700;9.316;2023-06-19T02:26:06;6.9;;;6.2;;
17949;SDS011;9100;48.700;9.316;2023-06-19T02:26:26;6.9;;;6.2;;
17949;SDS011;9100;48.700;9.316;2023-06-19T02:27:26;6.9;;;6.2;;
17949;SDS011;9100;48.700;9.316;2023-06-19T02:28:26;6.9;;;6.2;;
17949;SDS011;9100;48.700;9.316;2023-06-19T02:29:26;6.9;;;6.2;;
17949;SDS011;9100;48.700;9.316;2023-06-19T02:30:26;6.9;;;6.2;;
17949;SDS011;9100;48.700;9.316;2023-06-19T02:31:06;6.2;;;5.6;;
17949;SDS011;9100;48.700;9.316;2023-06-19T02:31:26;6.2;;;5.6;;
17949;SDS011;9100;48.700;9.316;2023-06-19T02:32:26;6.2;;;5.6;;
17949;SDS011;9100;48.700;9.316;2023-06-19T02:33:26;6.2;;;5.6;;
17949;SDS011;9100;48.700;9.316;2023-06-19T02:34:26;6.2;;;5.6;;
17949;SDS011;9100;48.700;9.316;2023-06-19T02:35:26;6.2;;;5.6;;
17949;SDS011;9100;48.700;9.316;2023-06-19T02:36:06;6.2;;;5.6;;
17949;SDS011;9100;48.700;9.316;2023-06-19T02:36:26;6.2;;;5.6;;
17949;SDS011;9100;48.700;9.316;2023-06-19T02:37:26;6.2;;;5.6;;
17949;SDS011;9100;48.700;9.316;2023-06-19T02:38:26;6.2;;;5.6;;
17949;SDS011;9100;48.700;9.316;2023-06-19T02:39:26;6.2;;;5.6;;
17949;SDS011;9100;48.700;9.316;2023-06-19T02:40:26;6.2;;;5.6;;
17949;SDS011;9100;48.700;9.316;2023-06-19T02:41:06;5.4;;;4.9;;
17949;SDS011;9100;48.700;9.316;2023-06-19T02:41:26;5.4;;;4.9;;
17949;SDS011;9100;48.700;9.316;2023-06-19T02:42:26;5.4;;;4.9;;
17949;SDS011;9100;48.700;9.316;2023-06-19T02:43:26;5.4;;;4.9;;
17949;SDS011;9100;48.700;9.316;2023-06-19T02:44:26;5.4;;;4.9;;
17949;SDS011;9100;48.700;9.316;2023-06-19T02:45:26;5.4;;;4.9;;
17949;SDS011;9100;48.700;9.316;2023-06-19T02:46:07;5.2;;;4.8;;
17949;SDS011;9100;48.700;9.316;2023-06-19T02:46:26;5.2;;;4.8;;
17949;SDS011;9100;48.700;9.316;2023-06-19T02:47:26;5.2;;;4.8;;
17949;SDS011;9100;48.700;9.316;2023-06-19T02:48:26;5.2;;;4.8;;
17949;SDS011;9100;48.700;9.316;2023-06-19T02:49:26;5.2;;;4.8;;
17949;SDS011;9100;48.700;9.316;2023-06-19T02:50:26;5.2;;;4.8;;
17949;SDS011;9100;48.700;9.316;2023-06-19T02:51:06;6.8;;;5.2;;
17949;SDS011;9100;48.700;9.316;2023-06-19T02:51:26;6.8;;;5.2;;
17949;SDS011;9100;48.700;9.316;2023-06-19T02:52:26;6.8;;;5.2;;
17949;SDS011;9100;48.700;9.316;2023-06-19T02:53:26;6.8;;;5.2;;
17949;SDS011;9100;48.700;9.316;2023-06-19T02:54:26;6.8;;;5.2;;
17949;SDS011;9100;48.700;9.316;2023-06-19T02:55:26;6.8;;;5.2;;
17949;SDS011;9100;48.700;9.316;2023-06-19T02:56:06;6.7;;;5.1;;
17949;SDS011;9100;48.700;9.316;2023-06-19T02:56:26;6.7;;;5.1;;
17949;SDS011;9100;48.700;9.316;2023-06-19T02:57:26;6.7;;;5.1;;
17949;SDS011;9100;48.700;9.316;2023-06-19T02:58:26;6.7;;;5.1;;
17949;SDS011;9100;48.700;9.316;2023-06-19T02:59:26;6.7;;;5.1;;
17949;SDS011;9100;48.700;9.316;2023-06-19T03:00:26;6.7;;;5.1;;
17949;SDS011;9100;48.700;9.316;2023-06-19T03:01:06;5.5;;;5;;
17949;SDS011;9100;48.700;9.316;2023-06-19T03:01:26;5.5;;;5;;
17949;SDS011;9100;48.700;9.316;2023-06-19T03:02:26;5.5;;;5;;
17949;SDS011;9100;48.700;9.316;2023-06-19T03:03:26;5.5;;;5;;
17949;SDS011;9100;48.700;9.316;2023-06-19T03:04:26;5.5;;;5;;
17949;SDS011;9100;48.700;9.316;2023-06-19T03:05:26;5.5;;;5;;
17949;SDS011;9100;48.700;9.316;2023-06-19T03:06:06;9.2;;;5.1;;
17949;SDS011;9100;48.700;9.316;2023-06-19T03:06:26;9.2;;;5.1;;
17949;SDS011;9100;48.700;9.316;2023-06-19T03:07:26;9.2;;;5.1;;
17949;SDS011;9100;48.700;9.316;2023-06-19T03:08:26;9.2;;;5.1;;
17949;SDS011;9100;48.700;9.316;2023-06-19T03:09:26;9.2;;;5.1;;
17949;SDS011;9100;48.700;9.316;2023-06-19T03:10:26;9.2;;;5.1;;
17949;SDS011;9100;48.700;9.316;2023-06-19T03:11:06;6.4;;;5.8;;
17949;SDS011;9100;48.700;9.316;2023-06-19T03:11:26;6.4;;;5.8;;
17949;SDS011;9100;48.700;9.316;2023-06-19T03:12:26;6.4;;;5.8;;
17949;SDS011;9100;48.700;9.316;2023-06-19T03:13:26;6.4;;;5.8;;
17949;SDS011;9100;48.700;9.316;2023-06-19T03:14:26;6.4;;;5.8;;
17949;SDS011;9100;48.700;9.316;2023-06-19T03:15:26;6.4;;;5.8;;
17949;SDS011;9100;48.700;9.316;2023-06-19T03:16:06;6;;;5.5;;
17949;SDS011;9100;48.700;9.316;2023-06-19T03:16:26;6;;;5.5;;
17949;SDS011;9100;48.700;9.316;2023-06-19T03:17:26;6;;;5.5;;
17949;SDS011;9100;48.700;9.316;2023-06-19T03:18:26;6;;;5.5;;
17949;SDS011;9100;48.700;9.316;2023-06-19T03:19:26;6;;;5.5;;
17949;SDS011;9100;48.700;9.316;2023-06-19T03:20:26;6;;;5.5;;
17949;SDS011;9100;48.700;9.316;2023-06-19T03:21:06;6.2;;;5.6;;
17949;SDS011;9100;48.700;9.316;2023-06-19T03:21:26;6.2;;;5.6;;
17949;SDS011;9100;48.700;9.316;2023-06-19T03:22:26;6.2;;;5.6;;
17949;SDS011;9100;48.700;9.316;2023-06-19T03:23:26;6.2;;;5.6;;
17949;SDS011;9100;48.700;9.316;2023-06-19T03:24:26;6.2;;;5.6;;
17949;SDS011;9100;48.700;9.316;2023-06-19T03:25:26;6.2;;;5.6;;
17949;SDS011;9100;48.700;9.316;2023-06-19T03:26:06;6.5;;;5.4;;
17949;SDS011;9100;48.700;9.316;2023-06-19T03:26:26;6.5;;;5.4;;
17949;SDS011;9100;48.700;9.316;2023-06-19T03:27:26;6.5;;;5.4;;
17949;SDS011;9100;48.700;9.316;2023-06-19T03:28:26;6.5;;;5.4;;
17949;SDS011;9100;48.700;9.316;2023-06-19T03:29:26;6.5;;;5.4;;
17949;SDS011;9100;48.700;9.316;2023-06-19T03:30:26;6.5;;;5.4;;
17949;SDS011;9100;48.700;9.316;2023-06-19T03:31:06;5.2;;;4.8;;
17949;SDS011;9100;48.700;9.316;2023-06-19T03:31:26;5.2;;;4.8;;
17949;SDS011;9100;48.700;9.316;2023-06-19T03:32:26;5.2;;;4.8;;
17949;SDS011;9100;48.700;9.316;2023-06-19T03:33:26;5.2;;;4.8;;
17949;SDS011;9100;48.700;9.316;2023-06-19T03:34:26;5.2;;;4.8;;
17949;SDS011;9100;48.700;9.316;2023-06-19T03:35:26;5.2;;;4.8;;
17949;SDS011;9100;48.700;9.316;2023-06-19T03:36:06;5.6;;;5.2;;
17949;SDS011;9100;48.700;9.316;2023-06-19T03:36:26;5.6;;;5.2;;
17949;SDS011;9100;48.700;9.316;2023-06-19T03:37:26;5.6;;;5.2;;
17949;SDS011;9100;48.700;9.316;2023-06-19T03:38:26;5.6;;;5.2;;
17949;SDS011;9100;48.700;9.316;2023-06-19T03:39:26;5.6;;;5.2;;
17949;SDS011;9100;48.700;9.316;2023-06-19T03:40:26;5.6;;;5.2;;
17949;SDS011;9100;48.700;9.316;2023-06-19T03:41:06;4.8;;;4.4;;
17949;SDS011;9100;48.700;9.316;2023-06-19T03:41:26;4.8;;;4.4;;
17949;SDS011;9100;48.700;9.316;2023-06-19T03:42:26;4.8;;;4.4;;
17949;SDS011;9100;48.700;9.316;2023-06-19T03:43:26;4.8;;;4.4;;
17949;SDS011;9100;48.700;9.316;2023-06-19T03:44:26;4.8;;;4.4;;
17949;SDS011;9100;48.700;9.316;2023-06-19T03:45:26;4.8;;;4.4;;
17949;SDS011;9100;48.700;9.316;2023-06-19T03:46:06;5.1;;;4.7;;
17949;SDS011;9100;48.700;9.316;2023-06-19T03:46:26;5.1;;;4.7;;
17949;SDS011;9100;48.700;9.316;2023-06-19T03:47:26;5.1;;;4.7;;
17949;SDS011;9100;48.700;9.316;2023-06-19T03:48:26;5.1;;;4.7;;
17949;SDS011;9100;48.700;9.316;2023-06-19T03:49:26;5.1;;;4.7;;
17949;SDS011;9100;48.700;9.316;2023-06-19T03:50:26;5.1;;;4.7;;
17949;SDS011;9100;48.700;9.316;2023-06-19T03:51:06;5.3;;;4.8;;
17949;SDS011;9100;48.700;9.316;2023-06-19T03:51:26;5.3;;;4.8;;
17949;SDS011;9100;48.700;9.316;2023-06-19T03:52:26;5.3;;;4.8;;
17949;SDS011;9100;48.700;9.316;2023-06-19T03:53:26;5.3;;;4.8;;
17949;SDS011;9100;48.700;9.316;2023-06-19T03:54:26;5.3;;;4.8;;
17949;SDS011;9100;48.700;9.316;2023-06-19T03:55:26;5.3;;;4.8;;
17949;SDS011;9100;48.700;9.316;2023-06-19T03:56:06;4.8;;;4.4;;
17949;SDS011;9100;48.700;9.316;2023-06-19T03:56:26;4.8;;;4.4;;
17949;SDS011;9100;48.700;9.316;2023-06-19T03:57:26;4.8;;;4.4;;
17949;SDS011;9100;48.700;9.316;2023-06-19T03:58:26;4.8;;;4.4;;
17949;SDS011;9100;48.700;9.316;2023-06-19T03:59:26;4.8;;;4.4;;
17949;SDS011;9100;48.700;9.316;2023-06-19T04:00:26;4.8;;;4.4;;
17949;SDS011;9100;48.700;9.316;2023-06-19T04:01:06;6;;;5.3;;
17949;SDS011;9100;48.700;9.316;2023-06-19T04:01:26;6;;;5.3;;
17949;SDS011;9100;48.700;9.316;2023-06-19T04:02:26;6;;;5.3;;
17949;SDS011;9100;48.700;9.316;2023-06-19T04:03:26;6;;;5.3;;
17949;SDS011;9100;48.700;9.316;2023-06-19T04:04:26;6;;;5.3;;
17949;SDS011;9100;48.700;9.316;2023-06-19T04:05:26;6;;;5.3;;
17949;SDS011;9100;48.700;9.316;2023-06-19T04:06:06;6.8;;;4.9;;
17949;SDS011;9100;48.700;9.316;2023-06-19T04:06:26;6.8;;;4.9;;
17949;SDS011;9100;48.700;9.316;2023-06-19T04:07:26;6.8;;;4.9;;
17949;SDS011;9100;48.700;9.316;2023-06-19T04:08:26;6.8;;;4.9;;
17949;SDS011;9100;48.700;9.316;2023-06-19T04:09:26;6.8;;;4.9;;
17949;SDS011;9100;48.700;9.316;2023-06-19T04:10:26;6.8;;;4.9;;
17949;SDS011;9100;48.700;9.316;2023-06-19T04:11:06;5.6;;;5.1;;
17949;SDS011;9100;48.700;9.316;2023-06-19T04:11:26;5.6;;;5.1;;
17949;SDS011;9100;48.700;9.316;2023-06-19T04:12:26;5.6;;;5.1;;
17949;SDS011;9100;48.700;9.316;2023-06-19T04:13:26;5.6;;;5.1;;
17949;SDS011;9100;48.700;9.316;2023-06-19T04:14:26;5.6;;;5.1;;
17949;SDS011;9100;48.700;9.316;2023-06-19T04:15:26;5.6;;;5.1;;
17949;SDS011;9100;48.700;9.316;2023-06-19T04:16:06;5.3;;;4.8;;
17949;SDS011;9100;48.700;9.316;2023-06-19T04:16:26;5.3;;;4.8;;
17949;SDS011;9100;48.700;9.316;2023-06-19T04:17:26;5.3;;;4.8;;
17949;SDS011;9100;48.700;9.316;2023-06-19T04:18:26;5.3;;;4.8;;
17949;SDS011;9100;48.700;9.316;2023-06-19T04:19:26;5.3;;;4.8;;
17949;SDS011;9100;48.700;9.316;2023-06-19T04:20:26;5.3;;;4.8;;
17949;SDS011;9100;48.700;9.316;2023-06-19T04:21:06;6.1;;;4.9;;
17949;SDS011;9100;48.700;9.316;2023-06-19T04:21:26;6.1;;;4.9;;
17949;SDS011;9100;48.700;9.316;2023-06-19T04:22:26;6.1;;;4.9;;
17949;SDS011;9100;48.700;9.316;2023-06-19T04:23:26;6.1;;;4.9;;
17949;SDS011;9100;48.700;9.316;2023-06-19T04:24:26;6.1;;;4.9;;
17949;SDS011;9100;48.700;9.316;2023-06-19T04:25:26;6.1;;;4.9;;
17949;SDS011;9100;48.700;9.316;2023-06-19T04:26:06;5.7;;;4.8;;
17949;SDS011;9100;48.700;9.316;2023-06-19T04:26:26;5.7;;;4.8;;
17949;SDS011;9100;48.700;9.316;2023-06-19T04:27:26;5.7;;;4.8;;
17949;SDS011;9100;48.700;9.316;2023-06-19T04:28:26;5.7;;;4.8;;
17949;SDS011;9100;48.700;9.316;2023-06-19T04:29:26;5.7;;;4.8;;
17949;SDS011;9100;48.700;9.316;2023-06-19T04:30:26;5.7;;;4.8;;
17949;SDS011;9100;48.700;9.316;2023-06-19T04:31:06;5.8;;;5.3;;
17949;SDS011;9100;48.700;9.316;2023-06-19T04:31:26;5.8;;;5.3;;
17949;SDS011;9100;48.700;9.316;2023-06-19T04:32:26;5.8;;;5.3;;
17949;SDS011;9100;48.700;9.316;2023-06-19T04:33:26;5.8;;;5.3;;
17949;SDS011;9100;48.700;9.316;2023-06-19T04:34:26;5.8;;;5.3;;
17949;SDS011;9100;48.700;9.316;2023-06-19T04:35:26;5.8;;;5.3;;
17949;SDS011;9100;48.700;9.316;2023-06-19T04:36:06;5.8;;;5.3;;
17949;SDS011;9100;48.700;9.316;2023-06-19T04:36:26;5.8;;;5.3;;
17949;SDS011;9100;48.700;9.316;2023-06-19T04:37:26;5.8;;;5.3;;
17949;SDS011;9100;48.700;9.316;2023-06-19T04:38:26;5.8;;;5.3;;
17949;SDS011;9100;48.700;9.316;2023-06-19T04:39:26;5.8;;;5.3;;
17949;SDS011;9100;48.700;9.316;2023-06-19T04:40:26;5.8;;;5.3;;
17949;SDS011;9100;48.700;9.316;2023-06-19T04:41:06;6.3;;;5.6;;
17949;SDS011;9100;48.700;9.316;2023-06-19T04:41:26;6.3;;;5.6;;
17949;SDS011;9100;48.700;9.316;2023-06-19T04:42:26;6.3;;;5.6;;
17949;SDS011;9100;48.700;9.316;2023-06-19T04:43:26;6.3;;;5.6;;
17949;SDS011;9100;48.700;9.316;2023-06-19T04:44:26;6.3;;;5.6;;
17949;SDS011;9100;48.700;9.316;2023-06-19T04:45:26;6.3;;;5.6;;
17949;SDS011;9100;48.700;9.316;2023-06-19T04:46:06;5.8;;;5.2;;
17949;SDS011;9100;48.700;9.316;2023-06-19T04:46:26;5.8;;;5.2;;
17949;SDS011;9100;48.700;9.316;2023-06-19T04:47:26;5.8;;;5.2;;
17949;SDS011;9100;48.700;9.316;2023-06-19T04:48:26;5.8;;;5.2;;
17949;SDS011;9100;48.700;9.316;2023-06-19T04:49:27;5.8;;;5.2;;
17949;SDS011;9100;48.700;9.316;2023-06-19T04:50:26;5.8;;;5.2;;
17949;SDS011;9100;48.700;9.316;2023-06-19T04:51:06;5.8;;;5.3;;
17949;SDS011;9100;48.700;9.316;2023-06-19T04:51:26;5.8;;;5.3;;
17949;SDS011;9100;48.700;9.316;2023-06-19T04:52:26;5.8;;;5.3;;
17949;SDS011;9100;48.700;9.316;2023-06-19T04:53:26;5.8;;;5.3;;
17949;SDS011;9100;48.700;9.316;2023-06-19T04:54:26;5.8;;;5.3;;
17949;SDS011;9100;48.700;9.316;2023-06-19T04:55:26;5.8;;;5.3;;
17949;SDS011;9100;48.700;9.316;2023-06-19T04:56:06;5.9;;;4.7;;
17949;SDS011;9100;48.700;9.316;2023-06-19T04:56:26;5.9;;;4.7;;
17949;SDS011;9100;48.700;9.316;2023-06-19T04:57:26;5.9;;;4.7;;
17949;SDS011;9100;48.700;9.316;2023-06-19T04:58:26;5.9;;;4.7;;
17949;SDS011;9100;48.700;9.316;2023-06-19T04:59:26;5.9;;;4.7;;
17949;SDS011;9100;48.700;9.316;2023-06-19T05:00:26;5.9;;;4.7;;
17949;SDS011;9100;48.700;9.316;2023-06-19T05:01:06;5;;;4.5;;
17949;SDS011;9100;48.700;9.316;2023-06-19T05:01:26;5;;;4.5;;
17949;SDS011;9100;48.700;9.316;2023-06-19T05:02:26;5;;;4.5;;
17949;SDS011;9100;48.700;9.316;2023-06-19T05:03:26;5;;;4.5;;
17949;SDS011;9100;48.700;9.316;2023-06-19T05:04:26;5;;;4.5;;
17949;SDS011;9100;48.700;9.316;2023-06-19T05:05:26;5;;;4.5;;
17949;SDS011;9100;48.700;9.316;2023-06-19T05:06:06;5.1;;;4.2;;
17949;SDS011;9100;48.700;9.316;2023-06-19T05:06:26;5.1;;;4.2;;
17949;SDS011;9100;48.700;9.316;2023-06-19T05:07:26;5.1;;;4.2;;
17949;SDS011;9100;48.700;9.316;2023-06-19T05:08:26;5.1;;;4.2;;
17949;SDS011;9100;48.700;9.316;2023-06-19T05:09:26;5.1;;;4.2;;
17949;SDS011;9100;48.700;9.316;2023-06-19T05:10:26;5.1;;;4.2;;
17949;SDS011;9100;48.700;9.316;2023-06-19T05:11:06;4.9;;;4.4;;
17949;SDS011;9100;48.700;9.316;2023-06-19T05:11:26;4.9;;;4.4;;
17949;SDS011;9100;48.700;9.316;2023-06-19T05:12:26;4.9;;;4.4;;
17949;SDS011;9100;48.700;9.316;2023-06-19T05:13:26;4.9;;;4.4;;
17949;SDS011;9100;48.700;9.316;2023-06-19T05:14:26;4.9;;;4.4;;
17949;SDS011;9100;48.700;9.316;2023-06-19T05:15:26;4.9;;;4.4;;
17949;SDS011;9100;48.700;9.316;2023-06-19T05:16:06;3.8;;;3.5;;
17949;SDS011;9100;48.700;9.316;2023-06-19T05:16:26;3.8;;;3.5;;